sensor_id;sensor_type;location;lat;lon;timestamp;P1;durP1;ratioP1;P2;durP2;ratioP2
12925;SDS011;6529;50.566;9.774;2023-03-13T00:02:07;9.13;;;2.70;;
12925;SDS011;6529;50.566;9.774;2023-03-13T00:04:33;8.47;;;2.80;;
12925;SDS011;6529;50.566;9.774;2023-03-13T00:06:59;9.60;;;2.47;;
12925;SDS011;6529;50.566;9.774;2023-03-13T00:09:24;10.50;;;2.50;;
12925;SDS011;6529;50.566;9.774;2023-03-13T00:11:51;9.10;;;2.53;;
12925;SDS011;6529;50.566;9.774;2023-03-13T00:14:17;8.33;;;2.63;;
12925;SDS011;6529;50.566;9.774;2023-03-13T00:16:42;7.33;;;2.40;;
12925;SDS011;6529;50.566;9.774;2023-03-13T00:19:08;9.83;;;2.20;;
12925;SDS011;6529;50.566;9.774;2023-03-13T00:21:34;12.80;;;2.80;;
12925;SDS011;6529;50.566;9.774;2023-03-13T00:24:02;12.77;;;2.57;;
12925;SDS011;6529;50.566;9.774;2023-03-13T00:26:28;9.33;;;2.30;;
12925;SDS011;6529;50.566;9.774;2023-03-13T00:28:54;11.57;;;2.50;;
12925;SDS011;6529;50.566;9.774;2023-03-13T00:31:24;9.13;;;2.33;;
12925;SDS011;6529;50.566;9.774;2023-03-13T00:33:52;9.83;;;2.83;;
12925;SDS011;6529;50.566;9.774;2023-03-13T00:36:21;9.47;;;2.53;;
12925;SDS011;6529;50.566;9.774;2023-03-13T00:38:49;11.33;;;2.73;;
12925;SDS011;6529;50.566;9.774;2023-03-13T00:41:23;12.53;;;2.47;;
12925;SDS011;6529;50.566;9.774;2023-03-13T00:43:50;11.10;;;2.93;;
12925;SDS011;6529;50.566;9.774;2023-03-13T00:46:17;10.27;;;2.50;;
12925;SDS011;6529;50.566;9.774;2023-03-13T00:48:45;9.23;;;2.67;;
12925;SDS011;6529;50.566;9.774;2023-03-13T00:51:11;9.83;;;2.30;;
12925;SDS011;6529;50.566;9.774;2023-03-13T00:53:37;12.57;;;2.80;;
12925;SDS011;6529;50.566;9.774;2023-03-13T00:56:04;11.70;;;2.60;;
12925;SDS011;6529;50.566;9.774;2023-03-13T00:58:38;11.30;;;2.80;;
12925;SDS011;6529;50.566;9.774;2023-03-13T01:03:36;8.93;;;2.33;;
12925;SDS011;6529;50.566;9.774;2023-03-13T01:06:02;8.10;;;2.60;;
12925;SDS011;6529;50.566;9.774;2023-03-13T01:08:29;12.10;;;3.10;;
12925;SDS011;6529;50.566;9.774;2023-03-13T01:11:03;11.33;;;2.90;;
12925;SDS011;6529;50.566;9.774;2023-03-13T01:13:30;10.40;;;2.40;;
12925;SDS011;6529;50.566;9.774;2023-03-13T01:16:00;6.93;;;2.30;;
12925;SDS011;6529;50.566;9.774;2023-03-13T01:18:27;8.27;;;2.30;;
12925;SDS011;6529;50.566;9.774;2023-03-13T01:20:52;13.43;;;2.80;;
12925;SDS011;6529;50.566;9.774;2023-03-13T01:23:18;9.43;;;2.40;;
12925;SDS011;6529;50.566;9.774;2023-03-13T01:25:43;10.97;;;2.40;;
12925;SDS011;6529;50.566;9.774;2023-03-13T01:28:09;10.93;;;2.70;;
12925;SDS011;6529;50.566;9.774;2023-03-13T01:30:34;8.97;;;2.80;;
12925;SDS011;6529;50.566;9.774;2023-03-13T01:33:00;6.27;;;2.60;;
12925;SDS011;6529;50.566;9.774;2023-03-13T01:35:26;10.67;;;2.90;;
12925;SDS011;6529;50.566;9.774;2023-03-13T01:37:52;9.03;;;2.33;;
12925;SDS011;6529;50.566;9.774;2023-03-13T01:40:17;9.47;;;2.23;;
12925;SDS011;6529;50.566;9.774;2023-03-13T01:42:53;12.50;;;2.90;;
12925;SDS011;6529;50.566;9.774;2023-03-13T01:48:21;6.10;;;1.93;;
12925;SDS011;6529;50.566;9.774;2023-03-13T01:50:55;10.20;;;2.67;;
12925;SDS011;6529;50.566;9.774;2023-03-13T01:53:23;9.07;;;2.30;;
12925;SDS011;6529;50.566;9.774;2023-03-13T01:55:49;9.10;;;2.07;;
12925;SDS011;6529;50.566;9.774;2023-03-13T01:58:16;10.97;;;2.97;;
12925;SDS011;6529;50.566;9.774;2023-03-13T02:00:42;6.83;;;2.20;;
12925;SDS011;6529;50.566;9.774;2023-03-13T02:03:11;9.10;;;2.43;;
12925;SDS011;6529;50.566;9.774;2023-03-13T02:05:40;9.80;;;2.30;;
12925;SDS011;6529;50.566;9.774;2023-03-13T02:08:10;10.93;;;2.60;;
12925;SDS011;6529;50.566;9.774;2023-03-13T02:10:48;9.67;;;2.80;;
12925;SDS011;6529;50.566;9.774;2023-03-13T02:13:17;8.03;;;2.40;;
12925;SDS011;6529;50.566;9.774;2023-03-13T02:15:44;5.73;;;2.10;;
12925;SDS011;6529;50.566;9.774;2023-03-13T02:18:11;7.83;;;2.50;;
12925;SDS011;6529;50.566;9.774;2023-03-13T02:20:37;9.77;;;2.63;;
12925;SDS011;6529;50.566;9.774;2023-03-13T02:26:03;10.03;;;2.50;;
12925;SDS011;6529;50.566;9.774;2023-03-13T02:28:30;9.57;;;2.60;;
12925;SDS011;6529;50.566;9.774;2023-03-13T02:31:03;7.83;;;2.30;;
12925;SDS011;6529;50.566;9.774;2023-03-13T02:33:29;9.33;;;2.20;;
12925;SDS011;6529;50.566;9.774;2023-03-13T02:35:59;8.53;;;2.50;;
12925;SDS011;6529;50.566;9.774;2023-03-13T02:38:26;10.00;;;2.53;;
12925;SDS011;6529;50.566;9.774;2023-03-13T02:40:54;9.23;;;2.23;;
12925;SDS011;6529;50.566;9.774;2023-03-13T02:46:10;7.27;;;1.97;;
12925;SDS011;6529;50.566;9.774;2023-03-13T02:48:40;10.13;;;2.73;;
12925;SDS011;6529;50.566;9.774;2023-03-13T02:54:09;9.37;;;2.27;;
12925;SDS011;6529;50.566;9.774;2023-03-13T02:56:41;9.70;;;2.30;;
12925;SDS011;6529;50.566;9.774;2023-03-13T02:59:09;7.73;;;2.73;;
12925;SDS011;6529;50.566;9.774;2023-03-13T03:01:35;9.07;;;2.30;;
12925;SDS011;6529;50.566;9.774;2023-03-13T03:04:00;10.50;;;2.23;;
12925;SDS011;6529;50.566;9.774;2023-03-13T03:06:26;8.90;;;2.47;;
12925;SDS011;6529;50.566;9.774;2023-03-13T03:08:51;6.37;;;1.90;;
12925;SDS011;6529;50.566;9.774;2023-03-13T03:11:17;8.07;;;2.03;;
12925;SDS011;6529;50.566;9.774;2023-03-13T03:13:42;7.43;;;1.90;;
12925;SDS011;6529;50.566;9.774;2023-03-13T03:16:09;8.07;;;2.33;;
12925;SDS011;6529;50.566;9.774;2023-03-13T03:18:36;8.47;;;2.07;;
12925;SDS011;6529;50.566;9.774;2023-03-13T03:21:02;8.53;;;2.40;;
12925;SDS011;6529;50.566;9.774;2023-03-13T03:23:31;8.57;;;2.27;;
12925;SDS011;6529;50.566;9.774;2023-03-13T03:25:57;8.20;;;1.93;;
12925;SDS011;6529;50.566;9.774;2023-03-13T03:28:23;6.47;;;1.70;;
12925;SDS011;6529;50.566;9.774;2023-03-13T03:30:49;8.17;;;3.00;;
12925;SDS011;6529;50.566;9.774;2023-03-13T03:33:14;8.43;;;2.23;;
12925;SDS011;6529;50.566;9.774;2023-03-13T03:35:40;7.43;;;2.07;;
12925;SDS011;6529;50.566;9.774;2023-03-13T03:38:05;7.07;;;2.17;;
12925;SDS011;6529;50.566;9.774;2023-03-13T03:40:31;7.17;;;1.90;;
12925;SDS011;6529;50.566;9.774;2023-03-13T03:42:57;8.43;;;2.17;;
12925;SDS011;6529;50.566;9.774;2023-03-13T03:45:22;7.93;;;2.20;;
12925;SDS011;6529;50.566;9.774;2023-03-13T03:47:48;8.90;;;2.30;;
12925;SDS011;6529;50.566;9.774;2023-03-13T03:50:13;9.00;;;2.67;;
12925;SDS011;6529;50.566;9.774;2023-03-13T03:52:39;9.47;;;2.17;;
12925;SDS011;6529;50.566;9.774;2023-03-13T03:55:05;7.23;;;2.40;;
12925;SDS011;6529;50.566;9.774;2023-03-13T03:57:31;5.93;;;2.37;;
12925;SDS011;6529;50.566;9.774;2023-03-13T03:59:56;7.03;;;2.17;;
12925;SDS011;6529;50.566;9.774;2023-03-13T04:02:22;9.43;;;2.30;;
12925;SDS011;6529;50.566;9.774;2023-03-13T04:04:47;7.33;;;2.10;;
12925;SDS011;6529;50.566;9.774;2023-03-13T04:07:13;5.30;;;1.70;;
12925;SDS011;6529;50.566;9.774;2023-03-13T04:09:38;7.30;;;1.93;;
12925;SDS011;6529;50.566;9.774;2023-03-13T04:12:04;6.80;;;2.40;;
12925;SDS011;6529;50.566;9.774;2023-03-13T04:14:30;7.10;;;3.10;;
12925;SDS011;6529;50.566;9.774;2023-03-13T04:16:55;11.23;;;1.90;;
12925;SDS011;6529;50.566;9.774;2023-03-13T04:19:21;8.23;;;2.40;;
12925;SDS011;6529;50.566;9.774;2023-03-13T04:21:47;7.33;;;2.40;;
12925;SDS011;6529;50.566;9.774;2023-03-13T04:24:12;5.87;;;1.90;;
12925;SDS011;6529;50.566;9.774;2023-03-13T04:26:38;5.33;;;1.80;;
12925;SDS011;6529;50.566;9.774;2023-03-13T04:29:03;6.37;;;2.23;;
12925;SDS011;6529;50.566;9.774;2023-03-13T04:31:30;8.07;;;2.47;;
12925;SDS011;6529;50.566;9.774;2023-03-13T04:33:56;7.30;;;1.90;;
12925;SDS011;6529;50.566;9.774;2023-03-13T04:36:22;7.07;;;2.07;;
12925;SDS011;6529;50.566;9.774;2023-03-13T04:38:47;4.30;;;1.90;;
12925;SDS011;6529;50.566;9.774;2023-03-13T04:41:13;4.90;;;1.70;;
12925;SDS011;6529;50.566;9.774;2023-03-13T04:43:38;7.03;;;2.10;;
12925;SDS011;6529;50.566;9.774;2023-03-13T04:46:04;6.33;;;1.60;;
12925;SDS011;6529;50.566;9.774;2023-03-13T04:48:30;5.10;;;2.00;;
12925;SDS011;6529;50.566;9.774;2023-03-13T04:50:55;5.00;;;1.67;;
12925;SDS011;6529;50.566;9.774;2023-03-13T04:53:21;6.90;;;2.00;;
12925;SDS011;6529;50.566;9.774;2023-03-13T04:55:47;6.00;;;1.90;;
12925;SDS011;6529;50.566;9.774;2023-03-13T04:58:13;3.33;;;1.80;;
12925;SDS011;6529;50.566;9.774;2023-03-13T05:00:39;6.43;;;2.00;;
12925;SDS011;6529;50.566;9.774;2023-03-13T05:03:05;7.13;;;2.17;;
12925;SDS011;6529;50.566;9.774;2023-03-13T05:05:32;4.83;;;1.63;;
12925;SDS011;6529;50.566;9.774;2023-03-13T05:07:59;4.50;;;1.63;;
12925;SDS011;6529;50.566;9.774;2023-03-13T05:10:25;5.57;;;2.00;;
12925;SDS011;6529;50.566;9.774;2023-03-13T05:12:51;7.73;;;1.80;;
12925;SDS011;6529;50.566;9.774;2023-03-13T05:15:17;5.20;;;1.60;;
12925;SDS011;6529;50.566;9.774;2023-03-13T05:17:42;2.50;;;1.40;;
12925;SDS011;6529;50.566;9.774;2023-03-13T05:20:08;4.93;;;1.70;;
12925;SDS011;6529;50.566;9.774;2023-03-13T05:22:35;2.33;;;1.30;;
12925;SDS011;6529;50.566;9.774;2023-03-13T05:25:01;5.43;;;1.50;;
12925;SDS011;6529;50.566;9.774;2023-03-13T05:27:28;5.07;;;1.60;;
12925;SDS011;6529;50.566;9.774;2023-03-13T05:29:53;5.33;;;1.70;;
12925;SDS011;6529;50.566;9.774;2023-03-13T05:32:19;2.50;;;1.40;;
12925;SDS011;6529;50.566;9.774;2023-03-13T05:34:44;3.13;;;1.70;;
12925;SDS011;6529;50.566;9.774;2023-03-13T05:37:10;2.97;;;1.60;;
12925;SDS011;6529;50.566;9.774;2023-03-13T05:39:35;4.87;;;1.60;;
12925;SDS011;6529;50.566;9.774;2023-03-13T05:42:01;3.73;;;1.70;;
12925;SDS011;6529;50.566;9.774;2023-03-13T05:44:26;3.63;;;1.70;;
12925;SDS011;6529;50.566;9.774;2023-03-13T05:46:52;3.70;;;1.73;;
12925;SDS011;6529;50.566;9.774;2023-03-13T05:49:17;5.90;;;1.80;;
12925;SDS011;6529;50.566;9.774;2023-03-13T05:51:43;3.17;;;1.70;;
12925;SDS011;6529;50.566;9.774;2023-03-13T05:54:08;3.53;;;1.50;;
12925;SDS011;6529;50.566;9.774;2023-03-13T05:56:34;4.33;;;1.50;;
12925;SDS011;6529;50.566;9.774;2023-03-13T05:58:59;2.40;;;1.80;;
12925;SDS011;6529;50.566;9.774;2023-03-13T06:01:25;4.03;;;2.07;;
12925;SDS011;6529;50.566;9.774;2023-03-13T06:03:51;3.07;;;1.83;;
12925;SDS011;6529;50.566;9.774;2023-03-13T06:06:16;3.60;;;1.73;;
12925;SDS011;6529;50.566;9.774;2023-03-13T06:08:42;3.10;;;1.80;;
12925;SDS011;6529;50.566;9.774;2023-03-13T06:11:08;3.77;;;2.27;;
12925;SDS011;6529;50.566;9.774;2023-03-13T06:13:33;4.10;;;1.90;;
12925;SDS011;6529;50.566;9.774;2023-03-13T06:15:59;2.90;;;1.80;;
12925;SDS011;6529;50.566;9.774;2023-03-13T06:18:25;3.70;;;1.87;;
12925;SDS011;6529;50.566;9.774;2023-03-13T06:20:55;3.07;;;1.70;;
12925;SDS011;6529;50.566;9.774;2023-03-13T06:23:22;4.10;;;1.80;;
12925;SDS011;6529;50.566;9.774;2023-03-13T06:25:47;3.83;;;2.13;;
12925;SDS011;6529;50.566;9.774;2023-03-13T06:28:13;3.33;;;2.10;;
12925;SDS011;6529;50.566;9.774;2023-03-13T06:30:39;2.40;;;1.73;;
12925;SDS011;6529;50.566;9.774;2023-03-13T06:33:05;2.10;;;1.80;;
12925;SDS011;6529;50.566;9.774;2023-03-13T06:35:31;3.20;;;2.03;;
12925;SDS011;6529;50.566;9.774;2023-03-13T06:37:56;2.57;;;2.10;;
12925;SDS011;6529;50.566;9.774;2023-03-13T06:40:22;2.77;;;2.03;;
12925;SDS011;6529;50.566;9.774;2023-03-13T06:42:47;3.70;;;1.90;;
12925;SDS011;6529;50.566;9.774;2023-03-13T06:45:13;4.03;;;1.90;;
12925;SDS011;6529;50.566;9.774;2023-03-13T06:47:38;3.13;;;1.70;;
12925;SDS011;6529;50.566;9.774;2023-03-13T06:50:04;2.03;;;1.80;;
12925;SDS011;6529;50.566;9.774;2023-03-13T06:52:30;4.10;;;2.30;;
12925;SDS011;6529;50.566;9.774;2023-03-13T06:54:55;2.67;;;1.80;;
12925;SDS011;6529;50.566;9.774;2023-03-13T06:57:21;2.80;;;1.93;;
12925;SDS011;6529;50.566;9.774;2023-03-13T06:59:47;2.60;;;1.80;;
12925;SDS011;6529;50.566;9.774;2023-03-13T07:02:12;2.83;;;2.00;;
12925;SDS011;6529;50.566;9.774;2023-03-13T07:04:39;3.37;;;1.93;;
12925;SDS011;6529;50.566;9.774;2023-03-13T07:07:05;2.50;;;2.20;;
12925;SDS011;6529;50.566;9.774;2023-03-13T07:09:30;2.47;;;2.20;;
12925;SDS011;6529;50.566;9.774;2023-03-13T07:11:56;2.00;;;1.80;;
12925;SDS011;6529;50.566;9.774;2023-03-13T07:14:22;3.70;;;2.30;;
12925;SDS011;6529;50.566;9.774;2023-03-13T07:16:48;3.50;;;2.30;;
12925;SDS011;6529;50.566;9.774;2023-03-13T07:19:14;3.20;;;2.60;;
12925;SDS011;6529;50.566;9.774;2023-03-13T07:21:40;3.07;;;2.60;;
12925;SDS011;6529;50.566;9.774;2023-03-13T07:24:05;4.17;;;3.20;;
12925;SDS011;6529;50.566;9.774;2023-03-13T07:26:31;6.50;;;2.93;;
12925;SDS011;6529;50.566;9.774;2023-03-13T07:28:57;7.47;;;3.20;;
12925;SDS011;6529;50.566;9.774;2023-03-13T07:31:23;5.40;;;3.20;;
12925;SDS011;6529;50.566;9.774;2023-03-13T07:33:48;4.53;;;3.20;;
12925;SDS011;6529;50.566;9.774;2023-03-13T07:36:18;3.70;;;3.27;;
12925;SDS011;6529;50.566;9.774;2023-03-13T07:38:46;5.57;;;3.30;;
12925;SDS011;6529;50.566;9.774;2023-03-13T07:41:16;4.40;;;3.37;;
12925;SDS011;6529;50.566;9.774;2023-03-13T07:43:42;4.57;;;3.37;;
12925;SDS011;6529;50.566;9.774;2023-03-13T07:46:10;4.07;;;2.97;;
12925;SDS011;6529;50.566;9.774;2023-03-13T07:48:38;4.00;;;3.27;;
12925;SDS011;6529;50.566;9.774;2023-03-13T07:51:05;4.33;;;3.10;;
12925;SDS011;6529;50.566;9.774;2023-03-13T07:53:35;5.90;;;3.23;;
12925;SDS011;6529;50.566;9.774;2023-03-13T07:56:01;3.80;;;3.40;;
12925;SDS011;6529;50.566;9.774;2023-03-13T07:58:30;5.37;;;3.30;;
12925;SDS011;6529;50.566;9.774;2023-03-13T08:00:57;4.73;;;2.93;;
12925;SDS011;6529;50.566;9.774;2023-03-13T08:03:23;5.10;;;2.83;;
12925;SDS011;6529;50.566;9.774;2023-03-13T08:05:59;5.10;;;3.17;;
12925;SDS011;6529;50.566;9.774;2023-03-13T08:08:27;3.97;;;2.80;;
12925;SDS011;6529;50.566;9.774;2023-03-13T08:10:57;5.10;;;2.90;;
12925;SDS011;6529;50.566;9.774;2023-03-13T08:13:24;3.67;;;2.70;;
12925;SDS011;6529;50.566;9.774;2023-03-13T08:15:49;4.07;;;2.87;;
12925;SDS011;6529;50.566;9.774;2023-03-13T08:18:15;4.57;;;2.77;;
12925;SDS011;6529;50.566;9.774;2023-03-13T08:20:40;3.23;;;2.70;;
12925;SDS011;6529;50.566;9.774;2023-03-13T08:23:06;2.73;;;2.47;;
12925;SDS011;6529;50.566;9.774;2023-03-13T08:25:32;3.27;;;2.60;;
12925;SDS011;6529;50.566;9.774;2023-03-13T08:27:57;4.30;;;2.83;;
12925;SDS011;6529;50.566;9.774;2023-03-13T08:30:23;2.70;;;2.43;;
12925;SDS011;6529;50.566;9.774;2023-03-13T08:32:48;3.60;;;2.90;;
12925;SDS011;6529;50.566;9.774;2023-03-13T08:35:14;3.83;;;2.77;;
12925;SDS011;6529;50.566;9.774;2023-03-13T08:37:39;3.57;;;2.57;;
12925;SDS011;6529;50.566;9.774;2023-03-13T08:40:05;2.60;;;2.40;;
12925;SDS011;6529;50.566;9.774;2023-03-13T08:42:35;2.70;;;2.00;;
12925;SDS011;6529;50.566;9.774;2023-03-13T08:45:01;2.47;;;2.20;;
12925;SDS011;6529;50.566;9.774;2023-03-13T08:47:28;2.93;;;2.13;;
12925;SDS011;6529;50.566;9.774;2023-03-13T08:49:54;4.07;;;2.53;;
12925;SDS011;6529;50.566;9.774;2023-03-13T08:52:19;3.63;;;2.30;;
12925;SDS011;6529;50.566;9.774;2023-03-13T08:54:47;2.73;;;2.20;;
12925;SDS011;6529;50.566;9.774;2023-03-13T08:57:12;2.73;;;2.00;;
12925;SDS011;6529;50.566;9.774;2023-03-13T08:59:39;4.53;;;2.50;;
12925;SDS011;6529;50.566;9.774;2023-03-13T09:02:05;3.27;;;2.37;;
12925;SDS011;6529;50.566;9.774;2023-03-13T09:04:30;2.73;;;2.53;;
12925;SDS011;6529;50.566;9.774;2023-03-13T09:06:56;3.33;;;2.60;;
12925;SDS011;6529;50.566;9.774;2023-03-13T09:09:21;3.80;;;2.57;;
12925;SDS011;6529;50.566;9.774;2023-03-13T09:11:47;2.10;;;1.90;;
12925;SDS011;6529;50.566;9.774;2023-03-13T09:14:12;2.90;;;2.40;;
12925;SDS011;6529;50.566;9.774;2023-03-13T09:16:38;3.13;;;2.33;;
12925;SDS011;6529;50.566;9.774;2023-03-13T09:19:03;2.60;;;2.33;;
12925;SDS011;6529;50.566;9.774;2023-03-13T09:21:31;2.40;;;2.20;;
12925;SDS011;6529;50.566;9.774;2023-03-13T09:23:58;3.97;;;2.23;;
12925;SDS011;6529;50.566;9.774;2023-03-13T09:26:24;4.60;;;2.93;;
12925;SDS011;6529;50.566;9.774;2023-03-13T09:28:51;3.30;;;2.20;;
12925;SDS011;6529;50.566;9.774;2023-03-13T09:31:21;2.70;;;2.33;;
12925;SDS011;6529;50.566;9.774;2023-03-13T09:33:49;3.23;;;2.30;;
12925;SDS011;6529;50.566;9.774;2023-03-13T09:36:16;3.33;;;2.47;;
12925;SDS011;6529;50.566;9.774;2023-03-13T09:38:42;3.03;;;2.37;;
12925;SDS011;6529;50.566;9.774;2023-03-13T09:46:25;3.53;;;2.67;;
12925;SDS011;6529;50.566;9.774;2023-03-13T09:49:03;3.47;;;2.33;;
12925;SDS011;6529;50.566;9.774;2023-03-13T09:51:37;3.20;;;2.27;;
12925;SDS011;6529;50.566;9.774;2023-03-13T09:54:40;2.63;;;2.33;;
12925;SDS011;6529;50.566;9.774;2023-03-13T09:57:26;3.30;;;2.50;;
12925;SDS011;6529;50.566;9.774;2023-03-13T10:00:04;2.97;;;2.40;;
12925;SDS011;6529;50.566;9.774;2023-03-13T10:02:38;3.27;;;2.33;;
12925;SDS011;6529;50.566;9.774;2023-03-13T10:05:13;3.53;;;2.50;;
12925;SDS011;6529;50.566;9.774;2023-03-13T10:07:54;3.23;;;2.50;;
12925;SDS011;6529;50.566;9.774;2023-03-13T10:13:27;3.27;;;2.80;;
12925;SDS011;6529;50.566;9.774;2023-03-13T10:15:58;3.50;;;2.80;;
12925;SDS011;6529;50.566;9.774;2023-03-13T10:18:27;5.27;;;2.60;;
12925;SDS011;6529;50.566;9.774;2023-03-13T10:20:55;2.80;;;2.50;;
12925;SDS011;6529;50.566;9.774;2023-03-13T10:26:18;2.87;;;2.37;;
12925;SDS011;6529;50.566;9.774;2023-03-13T10:28:49;3.13;;;2.23;;
12925;SDS011;6529;50.566;9.774;2023-03-13T10:31:34;2.77;;;2.40;;
12925;SDS011;6529;50.566;9.774;2023-03-13T10:34:05;3.67;;;2.60;;
12925;SDS011;6529;50.566;9.774;2023-03-13T10:36:41;2.63;;;2.30;;
12925;SDS011;6529;50.566;9.774;2023-03-13T10:39:13;3.07;;;2.60;;
12925;SDS011;6529;50.566;9.774;2023-03-13T10:41:47;3.17;;;2.30;;
12925;SDS011;6529;50.566;9.774;2023-03-13T10:44:18;2.60;;;2.23;;
12925;SDS011;6529;50.566;9.774;2023-03-13T10:46:53;3.00;;;2.63;;
12925;SDS011;6529;50.566;9.774;2023-03-13T10:49:26;3.33;;;2.70;;
12925;SDS011;6529;50.566;9.774;2023-03-13T10:51:53;2.87;;;2.00;;
12925;SDS011;6529;50.566;9.774;2023-03-13T10:54:41;4.03;;;2.47;;
12925;SDS011;6529;50.566;9.774;2023-03-13T10:57:28;2.87;;;2.60;;
12925;SDS011;6529;50.566;9.774;2023-03-13T10:59:56;2.33;;;2.13;;
12925;SDS011;6529;50.566;9.774;2023-03-13T11:02:26;2.90;;;2.20;;
12925;SDS011;6529;50.566;9.774;2023-03-13T11:05:00;3.07;;;2.40;;
12925;SDS011;6529;50.566;9.774;2023-03-13T11:07:46;3.77;;;2.20;;
12925;SDS011;6529;50.566;9.774;2023-03-13T11:12:45;3.00;;;2.30;;
12925;SDS011;6529;50.566;9.774;2023-03-13T11:15:18;2.97;;;2.33;;
12925;SDS011;6529;50.566;9.774;2023-03-13T11:20:35;3.13;;;2.23;;
12925;SDS011;6529;50.566;9.774;2023-03-13T11:23:09;3.53;;;2.77;;
12925;SDS011;6529;50.566;9.774;2023-03-13T11:31:33;2.80;;;2.37;;
12925;SDS011;6529;50.566;9.774;2023-03-13T11:47:36;4.33;;;2.30;;
12925;SDS011;6529;50.566;9.774;2023-03-13T11:50:14;3.67;;;2.40;;
12925;SDS011;6529;50.566;9.774;2023-03-13T12:07:34;3.17;;;2.57;;
12925;SDS011;6529;50.566;9.774;2023-03-13T12:09:50;2.73;;;2.53;;
12925;SDS011;6529;50.566;9.774;2023-03-13T12:17:36;3.90;;;2.60;;
12925;SDS011;6529;50.566;9.774;2023-03-13T12:20:13;3.60;;;2.77;;
12925;SDS011;6529;50.566;9.774;2023-03-13T12:22:56;2.83;;;2.43;;
12925;SDS011;6529;50.566;9.774;2023-03-13T12:25:23;3.60;;;2.87;;
12925;SDS011;6529;50.566;9.774;2023-03-13T12:35:41;5.53;;;2.50;;
12925;SDS011;6529;50.566;9.774;2023-03-13T12:38:16;3.33;;;2.40;;
12925;SDS011;6529;50.566;9.774;2023-03-13T12:48:44;4.57;;;2.93;;
12925;SDS011;6529;50.566;9.774;2023-03-13T13:00:18;4.00;;;2.53;;
12925;SDS011;6529;50.566;9.774;2023-03-13T13:02:47;3.03;;;2.57;;
12925;SDS011;6529;50.566;9.774;2023-03-13T13:05:34;6.43;;;2.67;;
12925;SDS011;6529;50.566;9.774;2023-03-13T13:08:00;2.80;;;2.47;;
12925;SDS011;6529;50.566;9.774;2023-03-13T13:10:26;4.07;;;2.80;;
12925;SDS011;6529;50.566;9.774;2023-03-13T13:13:16;3.67;;;2.70;;
12925;SDS011;6529;50.566;9.774;2023-03-13T13:15:46;3.20;;;2.60;;
12925;SDS011;6529;50.566;9.774;2023-03-13T13:18:24;5.23;;;2.83;;
12925;SDS011;6529;50.566;9.774;2023-03-13T13:23:33;3.20;;;2.50;;
12925;SDS011;6529;50.566;9.774;2023-03-13T13:28:57;3.77;;;2.80;;
12925;SDS011;6529;50.566;9.774;2023-03-13T13:36:57;3.97;;;2.60;;
12925;SDS011;6529;50.566;9.774;2023-03-13T13:39:36;3.27;;;2.83;;
12925;SDS011;6529;50.566;9.774;2023-03-13T13:44:58;3.23;;;2.33;;
12925;SDS011;6529;50.566;9.774;2023-03-13T13:47:25;3.87;;;2.30;;
12925;SDS011;6529;50.566;9.774;2023-03-13T13:49:54;2.73;;;2.37;;
12925;SDS011;6529;50.566;9.774;2023-03-13T13:52:32;3.70;;;2.70;;
12925;SDS011;6529;50.566;9.774;2023-03-13T13:54:58;4.10;;;2.67;;
12925;SDS011;6529;50.566;9.774;2023-03-13T13:57:24;3.87;;;2.80;;
12925;SDS011;6529;50.566;9.774;2023-03-13T14:00:15;3.73;;;2.50;;
12925;SDS011;6529;50.566;9.774;2023-03-13T14:02:52;3.33;;;2.60;;
12925;SDS011;6529;50.566;9.774;2023-03-13T14:10:38;2.93;;;2.63;;
12925;SDS011;6529;50.566;9.774;2023-03-13T14:13:13;4.60;;;2.87;;
12925;SDS011;6529;50.566;9.774;2023-03-13T14:15:42;3.70;;;2.40;;
12925;SDS011;6529;50.566;9.774;2023-03-13T14:18:10;3.67;;;2.47;;
12925;SDS011;6529;50.566;9.774;2023-03-13T14:23:28;4.03;;;2.53;;
12925;SDS011;6529;50.566;9.774;2023-03-13T14:25:54;3.70;;;2.60;;
12925;SDS011;6529;50.566;9.774;2023-03-13T14:28:23;3.73;;;2.40;;
12925;SDS011;6529;50.566;9.774;2023-03-13T14:30:53;5.10;;;2.63;;
12925;SDS011;6529;50.566;9.774;2023-03-13T14:33:20;4.07;;;2.50;;
12925;SDS011;6529;50.566;9.774;2023-03-13T14:35:46;3.80;;;2.57;;
12925;SDS011;6529;50.566;9.774;2023-03-13T14:38:16;3.30;;;2.20;;
12925;SDS011;6529;50.566;9.774;2023-03-13T14:40:47;3.43;;;2.70;;
12925;SDS011;6529;50.566;9.774;2023-03-13T14:43:26;3.17;;;2.20;;
12925;SDS011;6529;50.566;9.774;2023-03-13T14:45:56;3.03;;;2.40;;
12925;SDS011;6529;50.566;9.774;2023-03-13T14:48:26;2.97;;;2.17;;
12925;SDS011;6529;50.566;9.774;2023-03-13T14:51:20;3.23;;;2.43;;
12925;SDS011;6529;50.566;9.774;2023-03-13T14:54:20;3.57;;;2.20;;
12925;SDS011;6529;50.566;9.774;2023-03-13T14:59:33;2.63;;;2.17;;
12925;SDS011;6529;50.566;9.774;2023-03-13T15:02:00;2.37;;;2.13;;
12925;SDS011;6529;50.566;9.774;2023-03-13T15:04:46;4.23;;;1.87;;
12925;SDS011;6529;50.566;9.774;2023-03-13T15:07:20;3.40;;;2.10;;
12925;SDS011;6529;50.566;9.774;2023-03-13T15:09:47;3.03;;;2.20;;
12925;SDS011;6529;50.566;9.774;2023-03-13T15:12:17;3.03;;;2.10;;
12925;SDS011;6529;50.566;9.774;2023-03-13T15:14:47;4.63;;;2.33;;
12925;SDS011;6529;50.566;9.774;2023-03-13T15:19:40;2.30;;;1.90;;
12925;SDS011;6529;50.566;9.774;2023-03-13T15:22:11;2.70;;;2.17;;
12925;SDS011;6529;50.566;9.774;2023-03-13T15:24:37;4.77;;;2.50;;
12925;SDS011;6529;50.566;9.774;2023-03-13T15:27:07;3.63;;;2.70;;
12925;SDS011;6529;50.566;9.774;2023-03-13T15:29:42;3.90;;;3.60;;
12925;SDS011;6529;50.566;9.774;2023-03-13T15:32:11;7.37;;;5.07;;
12925;SDS011;6529;50.566;9.774;2023-03-13T15:34:42;4.97;;;3.20;;
12925;SDS011;6529;50.566;9.774;2023-03-13T15:37:10;10.63;;;8.40;;
12925;SDS011;6529;50.566;9.774;2023-03-13T15:39:37;7.93;;;6.77;;
12925;SDS011;6529;50.566;9.774;2023-03-13T15:42:02;4.90;;;3.77;;
12925;SDS011;6529;50.566;9.774;2023-03-13T15:44:28;4.87;;;3.50;;
12925;SDS011;6529;50.566;9.774;2023-03-13T15:46:53;7.17;;;6.07;;
12925;SDS011;6529;50.566;9.774;2023-03-13T15:49:19;4.23;;;3.10;;
12925;SDS011;6529;50.566;9.774;2023-03-13T15:51:45;7.27;;;5.27;;
12925;SDS011;6529;50.566;9.774;2023-03-13T15:54:10;3.97;;;3.20;;
12925;SDS011;6529;50.566;9.774;2023-03-13T15:56:36;4.40;;;3.00;;
12925;SDS011;6529;50.566;9.774;2023-03-13T15:59:09;4.00;;;3.40;;
12925;SDS011;6529;50.566;9.774;2023-03-13T16:01:35;5.43;;;3.70;;
12925;SDS011;6529;50.566;9.774;2023-03-13T16:04:01;7.47;;;3.77;;
12925;SDS011;6529;50.566;9.774;2023-03-13T16:06:27;6.27;;;4.50;;
12925;SDS011;6529;50.566;9.774;2023-03-13T16:09:00;3.63;;;2.30;;
12925;SDS011;6529;50.566;9.774;2023-03-13T16:11:27;3.27;;;2.10;;
12925;SDS011;6529;50.566;9.774;2023-03-13T16:13:53;3.13;;;1.50;;
12925;SDS011;6529;50.566;9.774;2023-03-13T16:16:26;1.10;;;1.00;;
12925;SDS011;6529;50.566;9.774;2023-03-13T16:18:53;2.27;;;1.30;;
12925;SDS011;6529;50.566;9.774;2023-03-13T16:21:27;1.47;;;1.00;;
12925;SDS011;6529;50.566;9.774;2023-03-13T16:23:55;2.30;;;1.00;;
12925;SDS011;6529;50.566;9.774;2023-03-13T16:26:22;2.23;;;1.20;;
12925;SDS011;6529;50.566;9.774;2023-03-13T16:28:49;1.73;;;1.20;;
12925;SDS011;6529;50.566;9.774;2023-03-13T16:31:19;1.20;;;1.10;;
12925;SDS011;6529;50.566;9.774;2023-03-13T16:33:51;2.70;;;1.17;;
12925;SDS011;6529;50.566;9.774;2023-03-13T16:36:19;1.87;;;1.20;;
12925;SDS011;6529;50.566;9.774;2023-03-13T16:38:46;1.00;;;0.87;;
12925;SDS011;6529;50.566;9.774;2023-03-13T16:41:17;1.60;;;1.10;;
12925;SDS011;6529;50.566;9.774;2023-03-13T16:43:44;1.40;;;1.00;;
12925;SDS011;6529;50.566;9.774;2023-03-13T16:48:47;1.00;;;0.87;;
12925;SDS011;6529;50.566;9.774;2023-03-13T16:51:20;2.60;;;1.13;;
12925;SDS011;6529;50.566;9.774;2023-03-13T16:53:48;1.27;;;1.00;;
12925;SDS011;6529;50.566;9.774;2023-03-13T16:56:16;2.60;;;1.00;;
12925;SDS011;6529;50.566;9.774;2023-03-13T16:58:57;1.57;;;0.90;;
12925;SDS011;6529;50.566;9.774;2023-03-13T17:01:25;1.00;;;0.90;;
12925;SDS011;6529;50.566;9.774;2023-03-13T17:03:52;1.43;;;1.00;;
12925;SDS011;6529;50.566;9.774;2023-03-13T17:06:20;1.77;;;1.10;;
12925;SDS011;6529;50.566;9.774;2023-03-13T17:08:47;2.03;;;1.10;;
12925;SDS011;6529;50.566;9.774;2023-03-13T17:11:14;1.67;;;1.10;;
12925;SDS011;6529;50.566;9.774;2023-03-13T17:13:45;1.33;;;1.23;;